createdAt,value
2022-10-22T00:02:25.962Z,99.90
2022-10-22T00:04:53.896Z,99.90
2022-10-22T00:07:21.134Z,99.90
2022-10-22T00:09:47.934Z,99.90
2022-10-22T00:12:15.916Z,99.90
2022-10-22T00:14:43.273Z,99.90
2022-10-22T00:17:11.601Z,99.90
2022-10-22T00:19:38.953Z,99.90
2022-10-22T00:22:05.894Z,99.90
2022-10-22T00:24:33.947Z,99.90
2022-10-22T00:27:00.781Z,99.90
2022-10-22T00:29:27.561Z,99.90
2022-10-22T00:34:22.258Z,99.90
2022-10-22T00:36:50.157Z,99.90
2022-10-22T00:39:19.344Z,99.90
2022-10-22T00:41:48.207Z,99.90
2022-10-22T00:44:52.512Z,99.90
2022-10-22T00:47:19.953Z,99.90
2022-10-22T00:49:47.911Z,99.90
2022-10-22T00:52:14.816Z,99.90
2022-10-22T00:54:42.497Z,99.90
2022-10-22T00:57:09.635Z,99.90
2022-10-22T00:59:38.016Z,99.90
2022-10-22T01:02:04.771Z,99.90
2022-10-22T01:04:31.501Z,99.90
2022-10-22T01:06:58.139Z,99.90
2022-10-22T01:09:35.363Z,99.90
2022-10-22T01:12:08.138Z,99.90
2022-10-22T01:15:07.934Z,99.90
2022-10-22T01:17:43.314Z,99.90
2022-10-22T01:20:44.265Z,99.90
2022-10-22T01:23:36.279Z,99.90
2022-10-22T01:26:19.923Z,99.90
2022-10-22T01:29:12.911Z,99.90
2022-10-22T01:31:54.959Z,99.90
2022-10-22T01:34:23.072Z,99.90
2022-10-22T01:36:52.508Z,99.90
2022-10-22T01:39:20.376Z,99.90
2022-10-22T01:41:47.211Z,99.90
2022-10-22T01:44:29.134Z,99.90
2022-10-22T01:47:09.850Z,99.90
2022-10-22T01:50:15.314Z,99.90
2022-10-22T01:52:45.875Z,99.90
2022-10-22T01:55:34.239Z,99.90
2022-10-22T01:58:28.182Z,99.90
2022-10-22T02:01:06.408Z,99.90
2022-10-22T02:03:41.889Z,99.90
2022-10-22T02:06:15.862Z,99.90
2022-10-22T02:08:43.254Z,99.90
2022-10-22T02:11:12.520Z,99.90
2022-10-22T02:13:47.149Z,99.90
2022-10-22T02:16:18.736Z,99.90
2022-10-22T02:18:48.401Z,99.90
2022-10-22T02:21:16.247Z,99.90
2022-10-22T02:23:43.918Z,99.90
2022-10-22T02:26:30.123Z,99.90
2022-10-22T02:29:14.009Z,99.90
2022-10-22T02:31:43.554Z,99.90
2022-10-22T02:34:14.578Z,99.90
2022-10-22T02:36:46.638Z,99.90
2022-10-22T02:39:19.069Z,99.90
2022-10-22T02:41:45.842Z,99.90
2022-10-22T02:44:12.423Z,99.90
2022-10-22T02:46:40.195Z,99.90
2022-10-22T02:49:07.476Z,99.90
2022-10-22T02:51:34.449Z,99.90
2022-10-22T02:54:01.028Z,99.90
2022-10-22T02:56:27.612Z,99.90
2022-10-22T02:58:54.234Z,99.90
2022-10-22T03:01:21.492Z,99.90
2022-10-22T03:03:48.174Z,99.90
2022-10-22T03:06:15.141Z,99.90
2022-10-22T03:08:41.960Z,99.90
2022-10-22T03:11:08.707Z,99.90
2022-10-22T03:13:35.334Z,99.90
2022-10-22T03:16:02.096Z,99.90
2022-10-22T03:18:28.810Z,99.90
2022-10-22T03:21:20.838Z,99.90
2022-10-22T03:23:48.168Z,99.90
2022-10-22T03:26:15.222Z,99.90
2022-10-22T03:28:42.297Z,99.90
2022-10-22T03:31:08.940Z,99.90
2022-10-22T03:33:35.509Z,99.90
2022-10-22T03:36:02.326Z,99.90
2022-10-22T03:38:29.852Z,99.90
2022-10-22T03:40:56.560Z,99.90
2022-10-22T03:43:23.279Z,99.90
2022-10-22T03:45:49.855Z,99.90
2022-10-22T03:48:16.495Z,99.90
2022-10-22T03:50:43.061Z,99.90
2022-10-22T03:53:10.634Z,99.90
2022-10-22T03:55:38.223Z,99.90
2022-10-22T03:58:05.559Z,99.90
2022-10-22T04:00:32.649Z,99.90
2022-10-22T04:02:59.241Z,99.90
2022-10-22T04:05:25.885Z,99.90
2022-10-22T04:07:52.561Z,99.90
2022-10-22T04:10:19.211Z,99.90
2022-10-22T04:12:48.205Z,99.90
2022-10-22T04:15:14.896Z,99.90
2022-10-22T04:17:41.664Z,99.90
2022-10-22T04:20:09.234Z,99.90
2022-10-22T04:22:36.717Z,99.90
2022-10-22T04:25:04.665Z,99.90
2022-10-22T04:27:32.766Z,99.90
2022-10-22T04:29:59.384Z,99.90
2022-10-22T04:32:29.051Z,99.90
2022-10-22T04:34:55.642Z,99.90
2022-10-22T04:37:22.219Z,99.90
2022-10-22T04:39:49.065Z,99.90
2022-10-22T04:42:15.658Z,99.90
2022-10-22T04:44:42.255Z,99.90
2022-10-22T04:47:08.927Z,99.90
2022-10-22T04:49:35.515Z,99.90
2022-10-22T04:52:02.175Z,99.90
2022-10-22T04:54:32.184Z,99.90
2022-10-22T04:56:59.875Z,99.90
2022-10-22T04:59:26.570Z,99.90
2022-10-22T05:01:53.174Z,99.90
2022-10-22T05:04:19.835Z,99.90
2022-10-22T05:06:47.263Z,99.90
2022-10-22T05:09:17.961Z,99.90
2022-10-22T05:11:48.387Z,99.90
2022-10-22T05:14:17.570Z,99.90
2022-10-22T05:19:17.158Z,99.90
2022-10-22T05:21:44.082Z,99.90
2022-10-22T05:24:10.742Z,99.90
2022-10-22T05:26:37.355Z,99.90
2022-10-22T05:29:03.934Z,99.90
2022-10-22T05:31:30.517Z,99.90
2022-10-22T05:33:57.155Z,99.90
2022-10-22T05:36:23.893Z,99.90
2022-10-22T05:38:50.933Z,99.90
2022-10-22T05:41:23.110Z,99.90
2022-10-22T05:43:50.241Z,99.90
2022-10-22T05:46:22.479Z,99.90
2022-10-22T05:48:55.508Z,99.90
2022-10-22T05:51:22.967Z,99.90
2022-10-22T05:53:53.376Z,99.90
2022-10-22T05:56:20.049Z,99.90
2022-10-22T05:58:46.735Z,99.90
2022-10-22T06:01:20.092Z,99.90
2022-10-22T06:03:47.355Z,99.90
2022-10-22T06:06:46.247Z,99.90
2022-10-22T06:09:27.163Z,99.90
2022-10-22T06:11:54.728Z,99.90
2022-10-22T06:14:21.971Z,99.90
2022-10-22T06:16:49.351Z,99.90
2022-10-22T06:19:18.345Z,99.90
2022-10-22T06:21:46.002Z,99.90
2022-10-22T06:24:13.024Z,99.90
2022-10-22T06:26:40.100Z,99.90
2022-10-22T06:29:07.202Z,99.90
2022-10-22T06:31:36.813Z,99.90
2022-10-22T06:34:05.800Z,99.90
2022-10-22T06:36:32.873Z,99.90
2022-10-22T06:38:59.493Z,99.90
2022-10-22T06:41:28.802Z,99.90
2022-10-22T06:43:57.264Z,99.90
2022-10-22T06:46:24.621Z,99.90
2022-10-22T06:48:56.771Z,99.90
2022-10-22T06:51:23.677Z,99.90
2022-10-22T06:53:50.319Z,99.90
2022-10-22T06:56:20.514Z,99.90
2022-10-22T06:58:50.794Z,99.90
2022-10-22T07:01:19.405Z,99.90
2022-10-22T07:03:46.367Z,99.90
2022-10-22T07:06:14.906Z,99.90
2022-10-22T07:08:42.398Z,99.90
2022-10-22T07:11:17.831Z,99.90
2022-10-22T07:13:45.379Z,99.90
2022-10-22T07:16:12.826Z,99.90
2022-10-22T07:18:41.604Z,99.90
2022-10-22T07:21:09.994Z,99.90
2022-10-22T07:23:37.072Z,99.90
2022-10-22T07:26:07.259Z,99.90
2022-10-22T07:28:35.438Z,99.90
2022-10-22T07:31:02.408Z,99.90
2022-10-22T07:33:29.015Z,99.90
2022-10-22T07:36:00.790Z,99.90
2022-10-22T07:38:28.677Z,99.90
2022-10-22T07:40:55.787Z,99.90
2022-10-22T07:43:22.401Z,99.90
2022-10-22T07:45:49.086Z,99.90
2022-10-22T07:48:15.987Z,99.90
2022-10-22T07:53:14.312Z,99.90
2022-10-22T07:55:41.250Z,99.90
2022-10-22T07:58:07.981Z,99.90
2022-10-22T08:00:34.915Z,99.90
2022-10-22T08:03:01.620Z,99.90
2022-10-22T08:05:28.251Z,99.90
2022-10-22T08:07:54.862Z,99.90
2022-10-22T08:10:21.624Z,99.70
2022-10-22T08:12:48.291Z,99.90
2022-10-22T08:15:14.919Z,99.00
2022-10-22T08:17:41.702Z,97.50
2022-10-22T08:20:09.015Z,95.90
2022-10-22T08:22:35.595Z,95.60
2022-10-22T08:25:02.227Z,95.10
2022-10-22T08:27:28.892Z,93.40
2022-10-22T08:29:55.537Z,95.00
2022-10-22T08:32:22.240Z,95.70
2022-10-22T08:34:48.899Z,96.20
2022-10-22T08:37:17.032Z,96.20
2022-10-22T08:39:44.498Z,95.50
2022-10-22T08:42:39.436Z,96.40
2022-10-22T08:45:17.077Z,95.80
2022-10-22T08:48:02.424Z,95.50
2022-10-22T08:50:45.988Z,95.60
2022-10-22T08:53:16.442Z,95.90
2022-10-22T08:55:44.294Z,96.60
2022-10-22T08:58:32.047Z,96.70
2022-10-22T09:01:05.795Z,97.10
2022-10-22T09:03:49.890Z,96.90
2022-10-22T09:06:24.131Z,97.80
2022-10-22T09:08:51.790Z,97.20
2022-10-22T09:11:37.645Z,97.40
2022-10-22T09:14:04.995Z,97.40
2022-10-22T09:16:54.557Z,97.80
2022-10-22T09:19:40.052Z,97.70
2022-10-22T09:22:25.672Z,97.70
2022-10-22T09:25:01.927Z,97.10
2022-10-22T09:27:31.100Z,97.10
2022-10-22T09:29:57.872Z,97.10
2022-10-22T09:32:25.859Z,97.00
2022-10-22T09:34:56.829Z,97.50
2022-10-22T09:37:27.858Z,97.90
2022-10-22T09:39:56.652Z,98.30
2022-10-22T09:42:23.703Z,97.70
2022-10-22T09:44:55.704Z,96.90
2022-10-22T09:48:01.057Z,97.30
2022-10-22T09:50:42.624Z,96.90
2022-10-22T09:53:43.215Z,96.80
2022-10-22T09:56:17.385Z,96.40
2022-10-22T09:58:49.085Z,97.00
2022-10-22T10:01:32.058Z,97.70
2022-10-22T10:04:16.606Z,96.20
2022-10-22T10:06:44.652Z,94.60
2022-10-22T10:09:24.146Z,95.00
2022-10-22T10:12:11.919Z,93.80
2022-10-22T10:14:44.496Z,93.60
2022-10-22T10:17:48.086Z,92.30
2022-10-22T10:20:20.747Z,92.30
2022-10-22T10:23:20.598Z,92.60
2022-10-22T10:26:10.736Z,91.80
2022-10-22T10:28:53.727Z,89.70
2022-10-22T10:31:43.540Z,89.80
2022-10-22T10:34:17.782Z,85.40
2022-10-22T10:37:17.764Z,85.50
2022-10-22T10:40:03.565Z,86.60
2022-10-22T10:42:36.562Z,90.10
2022-10-22T10:45:15.723Z,77.40
2022-10-22T10:48:01.275Z,79.10
2022-10-22T10:50:53.530Z,77.90
2022-10-22T10:53:42.853Z,77.30
2022-10-22T10:56:47.274Z,75.90
2022-10-22T10:59:19.200Z,74.50
2022-10-22T11:02:00.588Z,72.70
2022-10-22T11:04:57.153Z,69.60
2022-10-22T11:07:34.693Z,70.30
2022-10-22T11:10:16.285Z,69.40
2022-10-22T11:12:51.291Z,71.50
2022-10-22T11:15:17.840Z,72.00
2022-10-22T11:17:47.304Z,68.40
2022-10-22T11:20:13.887Z,69.30
2022-10-22T11:23:18.147Z,69.90
2022-10-22T11:25:49.834Z,68.80
2022-10-22T11:28:36.594Z,69.00
2022-10-22T11:31:18.126Z,69.30
2022-10-22T11:34:35.313Z,69.40
2022-10-22T11:37:04.760Z,67.80
2022-10-22T11:39:50.579Z,67.90
2022-10-22T11:42:22.837Z,70.20
2022-10-22T11:45:13.749Z,69.10
2022-10-22T11:47:56.851Z,64.30
2022-10-22T11:50:46.955Z,59.30
2022-10-22T11:53:13.552Z,58.10
2022-10-22T11:55:48.057Z,60.10
2022-10-22T11:58:42.015Z,58.10
2022-10-22T12:01:08.571Z,60.20
2022-10-22T12:03:35.226Z,62.10
2022-10-22T12:06:15.462Z,62.80
2022-10-22T12:08:50.424Z,64.20
2022-10-22T12:11:24.382Z,64.80
2022-10-22T12:14:11.791Z,67.10
2022-10-22T12:16:55.561Z,67.50
2022-10-22T12:19:22.940Z,67.60
2022-10-22T12:21:54.672Z,68.90
2022-10-22T12:24:23.591Z,68.60
2022-10-22T12:26:52.579Z,68.90
2022-10-22T12:29:23.625Z,69.90
2022-10-22T12:31:50.435Z,69.20
2022-10-22T12:34:21.169Z,70.00
2022-10-22T12:36:49.294Z,71.30
2022-10-22T12:39:19.834Z,71.50
2022-10-22T12:41:46.922Z,71.50
2022-10-22T12:44:16.738Z,70.20
2022-10-22T12:46:46.183Z,70.70
2022-10-22T12:49:28.390Z,69.70
2022-10-22T12:51:54.973Z,67.40
2022-10-22T12:54:29.334Z,68.60
2022-10-22T12:56:58.507Z,66.90
2022-10-22T12:59:35.050Z,64.80
2022-10-22T13:02:02.483Z,61.20
2022-10-22T13:04:37.607Z,57.20
2022-10-22T13:07:12.685Z,58.90
2022-10-22T13:09:39.506Z,59.20
2022-10-22T13:12:08.110Z,57.00
2022-10-22T13:14:38.030Z,57.80
2022-10-22T13:17:15.877Z,59.10
2022-10-22T13:19:54.479Z,59.60
2022-10-22T13:22:52.030Z,61.30
2022-10-22T13:25:26.153Z,59.70
2022-10-22T13:27:54.742Z,60.20
2022-10-22T13:30:27.249Z,58.20
2022-10-22T13:32:57.346Z,61.10
2022-10-22T13:35:28.566Z,61.00
2022-10-22T13:37:55.194Z,63.10
2022-10-22T13:40:22.002Z,63.60
2022-10-22T13:42:48.689Z,64.30
2022-10-22T13:45:15.466Z,62.40
2022-10-22T13:47:45.525Z,64.70
2022-10-22T13:50:15.455Z,64.00
2022-10-22T13:52:51.326Z,62.80
2022-10-22T13:55:17.885Z,61.80
2022-10-22T13:57:45.105Z,61.90
2022-10-22T14:00:14.084Z,61.90
2022-10-22T14:02:41.748Z,60.40
2022-10-22T14:05:09.544Z,59.50
2022-10-22T14:07:37.106Z,60.20
2022-10-22T14:10:14.027Z,61.70
2022-10-22T14:12:41.342Z,59.70
2022-10-22T14:15:09.730Z,59.90
2022-10-22T14:17:36.373Z,60.20
2022-10-22T14:20:03.222Z,61.20
2022-10-22T14:22:30.784Z,61.70
2022-10-22T14:24:57.490Z,61.10
2022-10-22T14:27:24.198Z,61.10
2022-10-22T14:29:50.894Z,60.20
2022-10-22T14:32:21.799Z,60.70
2022-10-22T14:34:48.454Z,60.90
2022-10-22T14:37:17.891Z,61.60
2022-10-22T14:39:46.980Z,61.50
2022-10-22T14:42:14.462Z,62.50
2022-10-22T14:44:41.108Z,63.60
2022-10-22T14:47:07.740Z,63.80
2022-10-22T14:49:34.441Z,64.60
2022-10-22T14:52:01.032Z,64.60
2022-10-22T14:54:27.708Z,65.50
2022-10-22T14:56:54.333Z,65.90
2022-10-22T14:59:20.934Z,66.60
2022-10-22T15:01:47.544Z,67.00
2022-10-22T15:04:14.127Z,67.80
2022-10-22T15:06:40.723Z,68.80
2022-10-22T15:09:07.325Z,68.70
2022-10-22T15:11:33.952Z,69.00
2022-10-22T15:14:00.537Z,69.70
2022-10-22T15:16:27.268Z,70.10
2022-10-22T15:18:53.828Z,70.70
2022-10-22T15:21:22.826Z,70.10
2022-10-22T15:23:49.944Z,70.70
2022-10-22T15:26:17.629Z,69.90
2022-10-22T15:28:44.240Z,70.50
2022-10-22T15:31:14.189Z,70.00
2022-10-22T15:33:42.377Z,70.70
2022-10-22T15:36:15.401Z,70.60
2022-10-22T15:38:42.205Z,70.90
2022-10-22T15:41:11.227Z,71.30
2022-10-22T15:43:37.842Z,71.70
2022-10-22T15:46:16.616Z,72.40
2022-10-22T15:48:43.760Z,72.20
2022-10-22T15:51:15.769Z,72.70
2022-10-22T15:53:42.839Z,72.80
2022-10-22T15:56:14.037Z,73.00
2022-10-22T15:58:40.633Z,73.50
2022-10-22T16:01:13.046Z,74.40
2022-10-22T16:03:41.014Z,75.00
2022-10-22T16:06:09.436Z,75.50
2022-10-22T16:08:36.805Z,76.20
2022-10-22T16:11:03.620Z,76.50
2022-10-22T16:13:30.919Z,76.90
2022-10-22T16:15:57.548Z,77.20
2022-10-22T16:18:24.160Z,77.70
2022-10-22T16:20:51.015Z,78.20
2022-10-22T16:23:18.861Z,78.50
2022-10-22T16:25:46.295Z,78.60
2022-10-22T16:28:12.927Z,78.20
2022-10-22T16:30:39.768Z,78.40
2022-10-22T16:33:07.550Z,78.90
2022-10-22T16:35:34.347Z,79.30
2022-10-22T16:38:01.044Z,80.30
2022-10-22T16:40:29.084Z,81.00
2022-10-22T16:42:55.631Z,81.40
2022-10-22T16:45:22.179Z,82.20
2022-10-22T16:47:49.176Z,82.30
2022-10-22T16:50:16.130Z,82.70
2022-10-22T16:52:42.742Z,82.80
2022-10-22T16:55:09.749Z,82.90
2022-10-22T16:57:36.405Z,83.50
2022-10-22T17:00:05.525Z,83.90
2022-10-22T17:02:32.090Z,83.80
2022-10-22T17:04:58.673Z,83.90
2022-10-22T17:07:25.261Z,84.50
2022-10-22T17:09:51.844Z,84.60
2022-10-22T17:12:18.468Z,84.60
2022-10-22T17:14:45.015Z,85.10
2022-10-22T17:17:11.613Z,85.40
2022-10-22T17:19:38.842Z,85.50
2022-10-22T17:22:05.711Z,86.00
2022-10-22T17:24:33.089Z,86.20
2022-10-22T17:26:59.785Z,86.30
2022-10-22T17:29:26.426Z,86.60
2022-10-22T17:31:53.251Z,87.00
2022-10-22T17:34:19.891Z,87.70
2022-10-22T17:36:46.583Z,87.80
2022-10-22T17:39:17.233Z,88.30
2022-10-22T17:41:43.893Z,88.20
2022-10-22T17:44:12.101Z,88.20
2022-10-22T17:46:38.931Z,88.60
2022-10-22T17:49:12.130Z,89.30
2022-10-22T17:51:38.675Z,89.40
2022-10-22T17:54:07.526Z,89.60
2022-10-22T17:56:37.314Z,89.90
2022-10-22T17:59:04.301Z,90.50
2022-10-22T18:01:33.946Z,90.90
2022-10-22T18:04:04.216Z,90.90
2022-10-22T18:06:31.342Z,91.20
2022-10-22T18:08:58.260Z,91.20
2022-10-22T18:11:27.102Z,91.00
2022-10-22T18:13:56.512Z,90.90
2022-10-22T18:16:24.072Z,91.00
2022-10-22T18:18:55.441Z,91.00
2022-10-22T18:21:25.034Z,90.80
2022-10-22T18:23:51.806Z,90.90
2022-10-22T18:26:22.953Z,90.90
2022-10-22T18:28:53.159Z,91.00
2022-10-22T18:31:22.743Z,91.10
2022-10-22T18:33:50.172Z,91.10
2022-10-22T18:36:20.118Z,91.30
2022-10-22T18:38:51.376Z,91.40
2022-10-22T18:41:18.602Z,92.60
2022-10-22T18:44:09.879Z,92.30
2022-10-22T18:46:39.145Z,92.60
2022-10-22T18:49:07.116Z,92.80
2022-10-22T18:51:36.699Z,93.00
2022-10-22T18:54:05.778Z,93.50
2022-10-22T18:56:44.836Z,94.40
2022-10-22T18:59:20.469Z,94.90
2022-10-22T19:01:47.277Z,95.40
2022-10-22T19:04:14.473Z,95.00
2022-10-22T19:06:45.301Z,95.00
2022-10-22T19:09:14.068Z,95.00
2022-10-22T19:11:41.954Z,95.80
2022-10-22T19:14:08.949Z,95.10
2022-10-22T19:16:37.645Z,95.30
2022-10-22T19:19:06.705Z,95.20
2022-10-22T19:21:33.540Z,95.40
2022-10-22T19:24:01.190Z,95.50
2022-10-22T19:26:30.641Z,95.40
2022-10-22T19:28:58.704Z,95.50
2022-10-22T19:31:26.586Z,95.70
2022-10-22T19:33:55.973Z,95.60
2022-10-22T19:36:24.454Z,95.60
2022-10-22T19:38:51.885Z,95.60
2022-10-22T19:41:20.459Z,96.20
2022-10-22T19:43:50.358Z,96.30
2022-10-22T19:46:17.413Z,96.20
2022-10-22T19:51:21.264Z,96.20
2022-10-22T19:53:48.664Z,96.30
2022-10-22T19:56:18.950Z,96.30
2022-10-22T19:58:46.144Z,96.30
2022-10-22T20:01:14.525Z,96.50
2022-10-22T20:03:41.857Z,96.40
2022-10-22T20:06:10.516Z,96.60
2022-10-22T20:08:38.048Z,96.70
2022-10-22T20:11:07.019Z,96.80
2022-10-22T20:13:35.177Z,96.80
2022-10-22T20:16:02.138Z,96.90
2022-10-22T20:18:28.898Z,97.80
2022-10-22T20:20:55.575Z,97.20
2022-10-22T20:23:22.196Z,97.30
2022-10-22T20:25:48.799Z,97.40
2022-10-22T20:28:15.559Z,97.30
2022-10-22T20:30:43.978Z,97.30
2022-10-22T20:33:10.758Z,97.40
2022-10-22T20:35:37.951Z,97.40
2022-10-22T20:38:06.453Z,97.50
2022-10-22T20:40:33.681Z,97.60
2022-10-22T20:43:01.517Z,97.70
2022-10-22T20:45:28.417Z,97.70
2022-10-22T20:48:02.169Z,97.70
2022-10-22T20:50:31.354Z,97.70
2022-10-22T20:52:58.591Z,97.90
2022-10-22T20:55:25.327Z,97.90
2022-10-22T20:57:51.958Z,98.00
2022-10-22T21:00:18.608Z,98.00
2022-10-22T21:02:45.292Z,98.10
2022-10-22T21:05:11.929Z,98.10
2022-10-22T21:07:38.900Z,98.20
2022-10-22T21:10:06.290Z,98.30
2022-10-22T21:12:32.908Z,98.20
2022-10-22T21:14:59.533Z,98.30
2022-10-22T21:17:26.349Z,98.50
2022-10-22T21:19:53.022Z,98.80
2022-10-22T21:22:19.626Z,99.40
2022-10-22T21:24:46.260Z,98.60
2022-10-22T21:27:12.837Z,98.90
2022-10-22T21:29:39.427Z,98.90
2022-10-22T21:32:06.015Z,98.80
2022-10-22T21:34:38.033Z,98.80
2022-10-22T21:37:05.819Z,98.80
2022-10-22T21:39:32.494Z,98.90
2022-10-22T21:41:59.158Z,98.90
2022-10-22T21:44:25.816Z,98.90
2022-10-22T21:46:52.564Z,98.90
2022-10-22T21:49:19.313Z,99.00
2022-10-22T21:51:45.890Z,98.90
2022-10-22T21:54:12.805Z,99.00
2022-10-22T21:56:41.411Z,99.10
2022-10-22T21:59:08.137Z,99.10
2022-10-22T22:01:35.160Z,99.10
2022-10-22T22:04:01.852Z,99.20
2022-10-22T22:06:33.156Z,99.10
2022-10-22T22:09:01.250Z,99.30
2022-10-22T22:11:28.930Z,99.30
2022-10-22T22:13:57.270Z,99.40
2022-10-22T22:16:28.646Z,99.40
2022-10-22T22:19:00.454Z,99.40
2022-10-22T22:21:27.631Z,99.50
2022-10-22T22:23:54.517Z,99.60
2022-10-22T22:26:26.862Z,99.80
2022-10-22T22:28:58.126Z,99.80
2022-10-22T22:31:26.162Z,99.80
2022-10-22T22:33:59.579Z,99.90
2022-10-22T22:36:26.455Z,99.90
2022-10-22T22:38:56.687Z,99.90
2022-10-22T22:41:23.542Z,99.90
2022-10-22T22:43:50.343Z,99.90
2022-10-22T22:46:17.247Z,99.90
2022-10-22T22:48:44.097Z,99.90
2022-10-22T22:51:11.102Z,99.90
2022-10-22T22:53:37.694Z,99.90
2022-10-22T22:56:27.943Z,99.90
2022-10-22T22:58:55.183Z,99.90
2022-10-22T23:01:27.990Z,99.90
2022-10-22T23:03:59.031Z,99.90
2022-10-22T23:06:28.646Z,99.90
2022-10-22T23:08:56.150Z,99.90
2022-10-22T23:11:24.407Z,99.90
2022-10-22T23:14:00.020Z,99.90
2022-10-22T23:16:30.280Z,99.90
2022-10-22T23:18:58.190Z,99.90
2022-10-22T23:21:27.943Z,99.90
2022-10-22T23:23:57.688Z,99.90
2022-10-22T23:26:36.771Z,99.90
2022-10-22T23:29:09.244Z,99.90
2022-10-22T23:31:35.877Z,99.90
2022-10-22T23:34:02.491Z,99.90
2022-10-22T23:36:29.637Z,99.90
2022-10-22T23:38:56.359Z,99.90
2022-10-22T23:41:23.030Z,99.90
2022-10-22T23:43:50.852Z,99.90
2022-10-22T23:46:18.118Z,99.90
2022-10-22T23:48:45.083Z,99.90
2022-10-22T23:51:15.018Z,99.90
2022-10-22T23:53:43.779Z,99.90
2022-10-22T23:56:13.749Z,99.90
2022-10-22T23:58:40.411Z,99.90
